• Join FlightAware (Why Join?)
  • Login
  • US Flag 
04:47PM EDT


 

Airport Tracker/Info


-or-


 

Live Flight TrackerFlight Track Log ✈ CSN3252 ✈ 17-Sep-2013 ✈ ZSSS / SHA - ZGKL / KWL

Flight Track Log - Related Links

Times and Time Zones

All times are in EDT time to prevent confusion due to time zone crossing. See the CSN3252 flight status page for this flight to view local times or setup timezone preferences in your user account.

Time Position Orientation Groundspeed Altitude Reporting Facility
EDT Latitude Longitude Course Direction KTS MPH feet Rate Location/Type
08:01AM 31.1780 121.3330 179° South 173 199 800  Level FlightAware
08:01AM 31.1590 121.3340 177° South 175 201 1,700 1,680 Climbing FlightAware
08:01AM 31.1390 121.3350 178° South 210 242 2,100 2,100 Climbing FlightAware
08:02AM 31.1130 121.3360 178° South 226 260 3,300 2,280 Climbing FlightAware
08:02AM 31.0850 121.3330 185° South 238 274 4,000 2,160 Climbing FlightAware
08:03AM 31.0580 121.2920 232° Southwest 291 335 5,500 2,760 Climbing FlightAware
08:03AM 31.0570 121.2670 267° West 303 349 6,300 3,000 Climbing FlightAware
08:04AM 31.0590 121.2150 273° West 302 348 8,000 2,580 Climbing FlightAware
08:04AM 31.0630 121.1720 276° West 315 362 8,900 2,220 Climbing FlightAware
08:04AM 31.0660 121.1440 277° West 325 374 9,500 1,740 Climbing FlightAware
08:05AM 31.0520 121.0610 259° West 328 377 10,800 840 Climbing FlightAware
08:06AM 31.0490 121.0040 266° West 328 377 10,800  Level FlightAware
08:06AM 31.0470 120.9500 268° West 328 377 10,800  Level FlightAware
08:07AM 31.0440 120.8960 266° West 328 377 10,800  Level FlightAware
08:10AM 30.9097 120.6104 241° Southwest  Level Estimated
08:11AM 30.8569 120.4986 241° Southwest  Level Estimated
08:12AM 30.8040 120.3869 241° Southwest  Level Estimated
08:13AM 30.7509 120.2754 241° Southwest  Level Estimated
08:14AM 30.6978 120.1640 241° Southwest  Level Estimated
08:15AM 30.6446 120.0527 241° Southwest  Level Estimated
08:16AM 30.5913 119.9415 241° Southwest  Level Estimated
08:17AM 30.5379 119.8304 241° Southwest  Level Estimated
08:18AM 30.4844 119.7195 241° Southwest  Level Estimated
08:19AM 30.4308 119.6087 241° Southwest  Level Estimated
08:20AM 30.3771 119.4980 241° Southwest  Level Estimated
08:21AM 30.3234 119.3874 241° Southwest  Level Estimated
08:22AM 30.2695 119.2770 241° Southwest  Level Estimated
08:23AM 30.2155 119.1667 241° Southwest  Level Estimated
08:24AM 30.1615 119.0565 240° Southwest  Level Estimated
08:25AM 30.1073 118.9464 240° Southwest  Level Estimated
08:26AM 30.0531 118.8364 240° Southwest  Level Estimated
08:27AM 29.9988 118.7266 240° Southwest  Level Estimated
08:28AM 29.9443 118.6169 240° Southwest  Level Estimated
08:29AM 29.8898 118.5073 240° Southwest  Level Estimated
08:30AM 29.8352 118.3978 240° Southwest  Level Estimated
08:31AM 29.7805 118.2884 240° Southwest  Level Estimated
08:32AM 29.7257 118.1792 240° Southwest  Level Estimated
08:33AM 29.6709 118.0701 240° Southwest  Level Estimated
08:34AM 29.6159 117.9611 240° Southwest  Level Estimated
08:35AM 29.5609 117.8522 240° Southwest  Level Estimated
08:36AM 29.5057 117.7434 240° Southwest  Level Estimated
08:37AM 29.4505 117.6348 240° Southwest  Level Estimated
08:38AM 29.3952 117.5263 240° Southwest  Level Estimated
08:39AM 29.3398 117.4178 240° Southwest  Level Estimated
08:40AM 29.2843 117.3095 240° Southwest  Level Estimated
08:41AM 29.2287 117.2014 240° Southwest  Level Estimated
08:42AM 29.1731 117.0933 239° Southwest  Level Estimated
08:43AM 29.1173 116.9854 239° Southwest  Level Estimated
08:44AM 29.0615 116.8776 239° Southwest  Level Estimated
08:45AM 29.0056 116.7699 239° Southwest  Level Estimated
08:46AM 28.9495 116.6623 239° Southwest  Level Estimated
08:47AM 28.8934 116.5548 239° Southwest  Level Estimated
08:48AM 28.8373 116.4474 239° Southwest  Level Estimated
08:49AM 28.7810 116.3402 239° Southwest  Level Estimated
08:50AM 28.7247 116.2331 239° Southwest  Level Estimated
08:51AM 28.6682 116.1261 239° Southwest  Level Estimated
08:52AM 28.6117 116.0192 239° Southwest  Level Estimated
08:53AM 28.5551 115.9124 239° Southwest  Level Estimated
08:54AM 28.4984 115.8057 239° Southwest  Level Estimated
08:55AM 28.4417 115.6992 239° Southwest  Level Estimated
08:56AM 28.3848 115.5928 239° Southwest  Level Estimated
08:57AM 28.3279 115.4864 239° Southwest  Level Estimated
08:58AM 28.2709 115.3802 239° Southwest  Level Estimated
08:59AM 28.2138 115.2741 239° Southwest  Level Estimated
09:00AM 28.1566 115.1682 239° Southwest  Level Estimated
09:01AM 28.0993 115.0623 239° Southwest  Level Estimated
09:02AM 28.0420 114.9565 238° Southwest  Level Estimated
09:03AM 27.9846 114.8509 238° Southwest  Level Estimated
09:04AM 27.9271 114.7454 238° Southwest  Level Estimated
09:05AM 27.8695 114.6399 238° Southwest  Level Estimated
09:06AM 27.8118 114.5346 238° Southwest  Level Estimated
09:07AM 27.7541 114.4295 238° Southwest  Level Estimated
09:08AM 27.6963 114.3244 238° Southwest  Level Estimated
09:09AM 27.6384 114.2194 238° Southwest  Level Estimated
09:10AM 27.5804 114.1145 238° Southwest  Level Estimated
09:11AM 27.5223 114.0098 238° Southwest  Level Estimated
09:12AM 27.4642 113.9052 238° Southwest  Level Estimated
09:13AM 27.4060 113.8006 238° Southwest  Level Estimated
09:14AM 27.3477 113.6962 238° Southwest  Level Estimated
09:15AM 27.2893 113.5919 238° Southwest  Level Estimated
09:16AM 27.2309 113.4877 238° Southwest  Level Estimated
09:17AM 27.1723 113.3836 238° Southwest  Level Estimated
09:18AM 27.1137 113.2796 238° Southwest  Level Estimated
09:19AM 27.0550 113.1758 238° Southwest  Level Estimated
09:20AM 26.9963 113.0720 238° Southwest  Level Estimated
09:21AM 26.9375 112.9683 238° Southwest  Level Estimated
09:22AM 26.8785 112.8648 237° Southwest  Level Estimated
09:23AM 26.8196 112.7614 237° Southwest  Level Estimated
09:24AM 26.7605 112.6580 237° Southwest  Level Estimated
09:25AM 26.7014 112.5548 237° Southwest  Level Estimated
09:26AM 26.6422 112.4517 237° Southwest  Level Estimated
09:27AM 26.5829 112.3487 237° Southwest  Level Estimated
09:28AM 26.5235 112.2458 237° Southwest  Level Estimated
09:29AM 26.4641 112.1430 237° Southwest  Level Estimated
09:30AM 26.4046 112.0403 237° Southwest  Level Estimated
09:31AM 26.3450 111.9377 237° Southwest  Level Estimated
09:32AM 26.2854 111.8353 237° Southwest  Level Estimated
09:33AM 26.2256 111.7329 237° Southwest  Level Estimated
09:34AM 26.1658 111.6306 237° Southwest  Level Estimated
09:35AM 26.1060 111.5285 237° Southwest  Level Estimated
09:36AM 26.0460 111.4264 237° Southwest  Level Estimated
09:37AM 25.9860 111.3245 237° Southwest  Level Estimated
09:38AM 25.9259 111.2226 237° Southwest  Level Estimated
09:39AM 25.8658 111.1209 237° Southwest  Level Estimated
09:40AM 25.8056 111.0192 237° Southwest  Level Estimated
09:41AM 25.7453 110.9177 237° Southwest  Level Estimated
09:42AM 25.6849 110.8163 237° Southwest  Level Estimated
09:43AM 25.6245 110.7149 237° Southwest  Level Estimated
09:44AM 25.5640 110.6137 236° Southwest  Level Estimated
09:45AM 25.5034 110.5126 236° Southwest  Level Estimated
09:46AM 25.4428 110.4116 236° Southwest  Level Estimated
09:47AM 25.3821 110.3107 236° Southwest  Level Estimated
09:48AM 25.3213 110.2098 236° Southwest  Level Estimated
09:49AM 25.2604 110.1091 236° Southwest  Level Estimated
09:50AM 25.2181 110.0392 236° Southwest  Level Estimated
09:51AM 25.2181 110.0392 214° Southwest  Level Estimated
09:52AM 25.2181 110.0392 214° Southwest  Level Estimated
09:53AM 25.2181 110.0392 214° Southwest  Level Estimated
09:54AM 25.2181 110.0392 214° Southwest  Level Estimated
09:55AM 25.2181 110.0392 214° Southwest  Level Estimated
09:56AM 25.2181 110.0392 214° Southwest  Level Estimated
09:57AM 25.2181 110.0392 214° Southwest  Level Estimated
09:58AM 25.2181 110.0392 214° Southwest  Level Estimated
09:59AM 25.2181 110.0392 214° Southwest  Level Estimated
10:00AM 25.2181 110.0392 214° Southwest  Level Estimated
10:01AM 25.2181 110.0392 214° Southwest  Level Estimated
10:02AM 25.2181 110.0392 214° Southwest  Level Estimated